Terminal Aerodrome Forecast
Issued by NWS

Home | Current Version | Previous Version | Text Only | Print | Product List | Glossary On
Versions: 1 2 3 4 5 6 7 8 9 10 11 12 13 14 15 16 17 18 19 20 21 22 23 24 25 26 27 28
000
FTUS42 KCAE 160200 AAA
TAFCUB
TAF AMD
KCUB 160235Z 1603/1624 35008G14KT P6SM FEW060
     FM160500 36008KT P6SM FEW250
     FM161300 04010G16KT P6SM SKC
     FM161700 06008KT P6SM SKC=

USA.gov is the U.S. government's official web portal to all federal, state and local government web resources and services.